Share

Atwood, OK

12:26 AM CDT on April 25, 2014 (GMT -0500)
Emergency Operations Center (KOKHOLDE1) Elev 908 ft | 35.08 °N, 96.40 °W | Change Station

Current weather conditions updated 52 seconds ago

Clear
Clear
51.6 °F
Feels Like 51.6 °F
N
0.0
Wind Variable Wind from NNE
Gusts 6.0 mph
Sunrise 6:41 AM
Sunset 8:05 PM
Moon Waning Crescent

Today is forecast to be Warmer than yesterday.

Pressure 29.98 in
Visibility 10.0 miles
Clouds Clear
Dew Point 45 °F
Humidity 78%
Rainfall 0.00 in
Snow Depth Not available.
UV 0 out of 16
Pollen 8.60 out of 12
Air Quality Not available.
Flu Activity Regional
METAR KADH 250515Z AUTO 00000KT 10SM CLR 12/05 A2998 RMK AO2

More Conditions Fewer Conditions

Pressure 29.98 in
Visibility 10.0 miles
Clouds Clear
Dew Point 45 °F
Humidity 78%
Rainfall 0.00 in
Snow Depth Not available.
UV 0 out of 16
Pollen 8.60 out of 12
Air Quality Not available.
Flu Activity Regional
METAR KADH 250515Z AUTO 00000KT 10SM CLR 12/05 A2998 RMK AO2

More Conditions Fewer Conditions

10-Day Weather Forecast

Almanac

Astronomy

Apr. 25, 2014 Rise Set
Actual Time 6:41 AM CDT 8:05 PM CDT
Civil Twilight 6:14 AM CDT 8:32 PM CDT
Nautical Twilight 5:42 AM CDT 9:04 PM CDT
Astronomical Twilight 5:09 AM CDT 9:38 PM CDT
Moon 4:20 AM CDT 4:37 PM CDT
Length of Visible Light 14h 17m
Length of Day
13h 24m
Tomorrow will be 1m 57s longer.
Waning Crescent, 19% of the Moon is Illuminated
Today
Waning Crescent
Apr 29
New
May 6
First Quarter
May 14
Full
May 21
Last Quarter

Today's Extremes

State Highs State Lows

Community

  • Deer in evening light
    Deer in evening light
  • Critter
    Critter
  • Jone Runs Falls
    Jone Runs Falls
  • Easter in Shenandoah National Park
    Easter in Shenandoah National Park
  • Sunset at Apalachicola Bay, Florida
    Sunset at Apalachicola Bay, Florida

WunderPhotos

Upload Photos

1,704,861 photos uploaded!

WunderBlogs® & News

Nearby

Snow Depth

Station Depth Elevation
No new snow has been reported.

Coastal Water Temperatures

Place Temperature
No Stations Reporting

Earthquake Activity

City Distance Mag. Time & Date
Guthrie, Oklahoma 86 miles 3.7 2:31 PM CDT
2014-04-20
Edmond, Oklahoma 87 miles 4.0 2:07 PM CDT
2014-04-20
Stillwater, Oklahoma 87 miles 2.8 5:30 PM CDT
2014-04-19
Enid, Oklahoma 142 miles 2.9 1:11 PM CDT
2014-04-19
Minimum magnitude displayed is 2.5.

Nearby Weather Stations

Station Location Temp. Windchill Dew Point Humidity Wind Precip. Elev Updated Type
Emergency Operations Center, Holdenville, OK 51.6 °F - 45 °F 78% NNE  at  0.0 mph 0.00 in / hr 908 ft 12:25 AM CDT Normal
Horntown OK, Holdenville, OK 49.5 °F 49 °F 44 °F 80% SSW  at  3.7 mph - / hr 827 ft 12:21 AM CDT Normal

Show More Stations Show Fewer Stations

What do you think?

We're not finished. Please let us know what you like, what you don't like, and what you are still missing.